Time,TemperatureF,DewpointF,PressureIn,WindDirection,WindDirectionDegrees,WindSpeedMPH,WindSpeedGustMPH,Humidity,HourlyPrecipIn,Conditions,Clouds,dailyrainin,SoftwareType,DateUTC
2013-09-05 00:05:00,70.9,64.1,30.07,NNW,345,0.0,0.0,79,0.00,,---,0.00,VWS V14.01,2013-09-05 05:05:00,
2013-09-05 00:35:00,70.7,63.9,30.07,NNW,345,0.0,0.0,79,0.00,,---,0.00,VWS V14.01,2013-09-05 05:35:00,
2013-09-05 01:05:00,69.8,64.1,30.07,NNW,345,0.0,0.0,82,0.00,,---,0.00,VWS V14.01,2013-09-05 06:05:00,
2013-09-05 01:35:00,69.5,63.8,30.07,NNW,345,0.0,0.0,82,0.00,,---,0.00,VWS V14.01,2013-09-05 06:35:00,
2013-09-05 02:05:00,69.2,64.2,30.08,NNW,345,0.0,0.0,84,0.00,,---,0.00,VWS V14.01,2013-09-05 07:05:00,
2013-09-05 02:35:00,68.5,64.2,30.08,NNW,345,0.0,0.0,86,0.00,,---,0.00,VWS V14.01,2013-09-05 07:35:00,
2013-09-05 03:05:00,68.4,64.4,30.08,NNW,345,0.0,0.0,87,0.00,,---,0.00,VWS V14.01,2013-09-05 08:05:00,
2013-09-05 03:35:00,69.2,65.2,30.09,WSW,256,3.0,6.0,87,0.00,,---,0.00,VWS V14.01,2013-09-05 08:35:00,
2013-09-05 04:05:00,68.8,64.8,30.09,SSE,147,0.0,9.0,87,0.00,,---,0.00,VWS V14.01,2013-09-05 09:05:00,
2013-09-05 04:35:00,68.6,64.6,30.09,SSE,147,0.0,0.0,87,0.00,,---,0.00,VWS V14.01,2013-09-05 09:35:00,
2013-09-05 05:05:00,68.5,64.5,30.09,SSE,147,0.0,0.0,87,0.00,,---,0.00,VWS V14.01,2013-09-05 10:05:00,
2013-09-05 05:35:00,69.0,65.0,30.09,SSE,147,0.0,0.0,87,0.00,,---,0.00,VWS V14.01,2013-09-05 10:35:00,
2013-09-05 06:05:00,69.9,64.8,30.09,SSE,147,0.0,0.0,84,0.00,,---,0.00,VWS V14.01,2013-09-05 11:05:00,
2013-09-05 06:35:00,69.6,64.9,30.10,SSE,147,0.0,3.0,85,0.00,,---,0.00,VWS V14.01,2013-09-05 11:35:00,
2013-09-05 07:05:00,69.1,64.7,30.11,SSE,147,0.0,3.0,86,0.00,,---,0.00,VWS V14.01,2013-09-05 12:05:00,
2013-09-05 07:35:00,68.6,64.6,30.11,SSE,147,0.0,0.0,87,0.00,,---,0.00,VWS V14.01,2013-09-05 12:35:00,
2013-09-05 08:05:00,69.5,65.1,30.12,SSE,147,0.0,0.0,86,0.00,,---,0.00,VWS V14.01,2013-09-05 13:05:00,
2013-09-05 08:35:00,73.2,65.9,30.13,NW,319,0.0,9.0,78,0.00,,---,0.00,VWS V14.01,2013-09-05 13:35:00,
2013-09-05 09:05:00,75.7,66.4,30.13,SE,145,0.0,9.0,73,0.00,,---,0.00,VWS V14.01,2013-09-05 14:05:00,
2013-09-05 09:35:00,78.2,65.0,30.14,NNW,340,9.0,12.0,64,0.00,,---,0.00,VWS V14.01,2013-09-05 14:35:00,
2013-09-05 10:05:00,79.9,64.3,30.14,WSW,237,3.0,15.0,59,0.00,,---,0.00,VWS V14.01,2013-09-05 15:05:00,
2013-09-05 10:35:00,82.5,64.2,30.14,NNE,19,3.0,15.0,54,0.00,,---,0.00,VWS V14.01,2013-09-05 15:35:00,
2013-09-05 11:05:00,83.5,64.0,30.13,NNW,333,6.0,12.0,52,0.00,,---,0.00,VWS V14.01,2013-09-05 16:05:00,
2013-09-05 11:35:00,85.4,64.7,30.13,NW,325,0.0,15.0,50,0.00,,---,0.00,VWS V14.01,2013-09-05 16:35:00,
2013-09-05 12:05:00,86.4,64.4,30.13,North,360,3.0,12.0,48,0.00,,---,0.00,VWS V14.01,2013-09-05 17:05:00,
2013-09-05 12:35:00,87.2,63.9,30.12,SSW,207,9.0,21.0,46,0.00,,---,0.00,VWS V14.01,2013-09-05 17:35:00,
2013-09-05 13:05:00,87.9,65.2,30.10,NNE,32,3.0,12.0,47,0.00,,---,0.00,VWS V14.01,2013-09-05 18:05:00,
2013-09-05 13:35:00,89.2,66.3,30.10,ESE,122,6.0,21.0,47,0.00,,---,0.00,VWS V14.01,2013-09-05 18:35:00,
2013-09-05 14:05:00,89.1,66.3,30.09,NE,49,9.0,24.0,47,0.00,,---,0.00,VWS V14.01,2013-09-05 19:05:00,
2013-09-05 14:35:00,89.4,64.0,30.09,ESE,121,3.0,12.0,43,0.00,,---,0.00,VWS V14.01,2013-09-05 19:35:00,
2013-09-05 15:05:00,90.4,65.5,30.08,SE,125,9.0,18.0,44,0.00,,---,0.00,VWS V14.01,2013-09-05 20:05:00,
2013-09-05 15:35:00,90.3,66.1,30.08,SSW,213,6.0,15.0,45,0.00,,---,0.00,VWS V14.01,2013-09-05 20:35:00,
2013-09-05 16:05:00,91.0,66.1,30.07,NNW,329,0.0,15.0,44,0.00,,---,0.00,VWS V14.01,2013-09-05 21:05:00,
2013-09-05 16:35:00,90.0,65.2,30.07,SSW,212,0.0,15.0,44,0.00,,---,0.00,VWS V14.01,2013-09-05 21:35:00,
2013-09-05 17:05:00,89.3,65.8,30.06,SE,126,0.0,21.0,46,0.00,,---,0.00,VWS V14.01,2013-09-05 22:05:00,
2013-09-05 17:35:00,89.3,65.8,30.07,SW,217,0.0,12.0,46,0.00,,---,0.00,VWS V14.01,2013-09-05 22:35:00,
2013-09-05 18:05:00,89.9,66.4,30.06,SSW,199,3.0,12.0,46,0.00,,---,0.00,VWS V14.01,2013-09-05 23:05:00,
2013-09-05 18:35:00,88.8,66.0,30.06,South,182,0.0,12.0,47,0.00,,---,0.00,VWS V14.01,2013-09-05 23:35:00,
2013-09-05 19:05:00,87.3,66.4,30.05,SSW,203,0.0,6.0,50,0.00,,---,0.00,VWS V14.01,2013-09-06 00:05:00,
2013-09-05 19:35:00,84.4,65.9,30.05,SSW,203,0.0,0.0,54,0.00,,---,0.00,VWS V14.01,2013-09-06 00:35:00,
2013-09-05 20:05:00,81.3,66.1,30.06,SSW,203,0.0,0.0,60,0.00,,---,0.00,VWS V14.01,2013-09-06 01:05:00,
2013-09-05 20:35:00,79.3,66.1,30.06,SSW,203,0.0,0.0,64,0.00,,---,0.00,VWS V14.01,2013-09-06 01:35:00,
2013-09-05 21:05:00,77.7,66.3,30.07,SSW,203,0.0,0.0,68,0.00,,---,0.00,VWS V14.01,2013-09-06 02:05:00,
2013-09-05 21:35:00,76.5,66.8,30.07,SSW,203,0.0,0.0,72,0.00,,---,0.00,VWS V14.01,2013-09-06 02:35:00,
2013-09-05 22:05:00,75.7,66.4,30.07,SSW,203,0.0,0.0,73,0.00,,---,0.00,VWS V14.01,2013-09-06 03:05:00,
2013-09-05 22:35:00,75.1,66.2,30.07,SSW,203,0.0,0.0,74,0.00,,---,0.00,VWS V14.01,2013-09-06 03:35:00,
2013-09-05 23:05:00,75.4,66.2,30.06,SSW,203,0.0,3.0,73,0.00,,---,0.00,VWS V14.01,2013-09-06 04:05:00,
2013-09-05 23:35:00,73.7,67.2,30.06,SSW,209,0.0,6.0,80,0.00,,---,0.00,VWS V14.01,2013-09-06 04:35:00,